createdAt,value
2019-03-03T19:09:29.678Z,2.20
2019-03-03T19:15:33.372Z,1.90
2019-03-03T19:21:36.351Z,1.80
2019-03-03T19:27:40.917Z,1.77
2019-03-03T19:33:46.968Z,1.70
2019-03-03T19:39:49.699Z,1.60
2019-03-03T19:45:55.475Z,1.60
2019-03-03T19:51:58.200Z,1.30
2019-03-03T19:58:00.996Z,1.60
2019-03-03T20:04:03.727Z,1.70
2019-03-03T20:10:09.384Z,1.40
2019-03-03T20:16:12.155Z,1.20
2019-03-03T20:22:14.883Z,1.30
2019-03-03T20:28:17.956Z,1.20
2019-03-03T20:34:20.684Z,1.50
2019-03-03T20:40:24.755Z,1.13
2019-03-03T20:46:27.487Z,1.30
2019-03-03T20:52:30.216Z,1.07
2019-03-03T20:58:32.944Z,1.20
2019-03-03T21:04:35.672Z,1.20
2019-03-03T21:10:38.400Z,1.00
2019-03-03T21:16:41.127Z,1.10
2019-03-03T21:22:43.863Z,1.10
2019-03-03T21:28:46.595Z,1.00
2019-03-03T21:34:49.665Z,1.00
2019-03-03T21:40:52.491Z,0.93
2019-03-03T21:46:55.252Z,0.93
2019-03-03T21:52:58.041Z,1.00
2019-03-03T21:59:00.862Z,1.17
2019-03-03T22:05:04.481Z,1.10
2019-03-03T22:11:07.216Z,1.10
2019-03-03T22:17:10.193Z,1.00
2019-03-03T22:23:12.924Z,1.17
2019-03-03T22:29:15.646Z,0.97
2019-03-03T22:35:18.380Z,0.97
2019-03-03T22:41:21.116Z,1.30
2019-03-03T22:47:23.847Z,1.00
2019-03-03T22:53:26.683Z,0.67
2019-03-03T22:59:29.432Z,1.10
2019-03-03T23:05:43.977Z,1.00
2019-03-03T23:12:08.208Z,1.00
2019-03-03T23:18:34.082Z,1.00
2019-03-03T23:24:55.428Z,1.10
2019-03-03T23:30:58.154Z,1.15
2019-03-03T23:37:00.883Z,1.00
2019-03-03T23:43:03.632Z,1.00
2019-03-03T23:49:06.369Z,1.10
2019-03-03T23:55:09.087Z,0.90
